sensor_id;sensor_type;location;lat;lon;timestamp;P1;durP1;ratioP1;P2;durP2;ratioP2
60370;SDS011;48550;40.588;49.684;2023-03-31T00:01:25;6.03;;;2.60;;
60370;SDS011;48550;40.588;49.684;2023-03-31T00:03:51;8.80;;;2.28;;
60370;SDS011;48550;40.588;49.684;2023-03-31T00:06:26;11.43;;;2.83;;
60370;SDS011;48550;40.588;49.684;2023-03-31T00:08:52;9.00;;;2.35;;
60370;SDS011;48550;40.588;49.684;2023-03-31T00:11:18;9.80;;;3.33;;
60370;SDS011;48550;40.588;49.684;2023-03-31T00:13:45;12.20;;;3.08;;
60370;SDS011;48550;40.588;49.684;2023-03-31T00:16:11;7.60;;;2.50;;
60370;SDS011;48550;40.588;49.684;2023-03-31T00:18:37;9.05;;;2.38;;
60370;SDS011;48550;40.588;49.684;2023-03-31T00:21:12;8.75;;;2.58;;
60370;SDS011;48550;40.588;49.684;2023-03-31T00:23:49;9.55;;;3.15;;
60370;SDS011;48550;40.588;49.684;2023-03-31T00:26:15;12.38;;;2.65;;
60370;SDS011;48550;40.588;49.684;2023-03-31T00:28:41;6.53;;;2.88;;
60370;SDS011;48550;40.588;49.684;2023-03-31T00:31:07;11.70;;;2.92;;
60370;SDS011;48550;40.588;49.684;2023-03-31T00:33:32;17.13;;;2.88;;
60370;SDS011;48550;40.588;49.684;2023-03-31T00:35:58;6.40;;;2.25;;
60370;SDS011;48550;40.588;49.684;2023-03-31T00:38:26;5.07;;;2.70;;
60370;SDS011;48550;40.588;49.684;2023-03-31T00:40:54;6.13;;;2.58;;
60370;SDS011;48550;40.588;49.684;2023-03-31T00:43:31;9.40;;;2.55;;
60370;SDS011;48550;40.588;49.684;2023-03-31T00:46:12;10.50;;;2.75;;
60370;SDS011;48550;40.588;49.684;2023-03-31T00:48:50;13.63;;;2.85;;
60370;SDS011;48550;40.588;49.684;2023-03-31T00:51:18;4.67;;;2.70;;
60370;SDS011;48550;40.588;49.684;2023-03-31T00:53:48;6.57;;;2.38;;
60370;SDS011;48550;40.588;49.684;2023-03-31T00:56:27;7.85;;;2.65;;
60370;SDS011;48550;40.588;49.684;2023-03-31T00:58:56;7.80;;;2.63;;
60370;SDS011;48550;40.588;49.684;2023-03-31T01:01:26;8.18;;;2.47;;
60370;SDS011;48550;40.588;49.684;2023-03-31T01:03:52;8.60;;;2.75;;
60370;SDS011;48550;40.588;49.684;2023-03-31T01:06:18;6.43;;;2.05;;
60370;SDS011;48550;40.588;49.684;2023-03-31T01:08:47;7.72;;;2.72;;
60370;SDS011;48550;40.588;49.684;2023-03-31T01:11:16;7.20;;;2.67;;
60370;SDS011;48550;40.588;49.684;2023-03-31T01:13:44;12.93;;;2.85;;
60370;SDS011;48550;40.588;49.684;2023-03-31T01:16:14;11.07;;;3.40;;
60370;SDS011;48550;40.588;49.684;2023-03-31T01:18:40;7.75;;;2.88;;
60370;SDS011;48550;40.588;49.684;2023-03-31T01:40:55;5.22;;;2.72;;
60370;SDS011;48550;40.588;49.684;2023-03-31T01:54:11;9.00;;;3.10;;
60370;SDS011;48550;40.588;49.684;2023-03-31T01:56:48;6.68;;;2.90;;
60370;SDS011;48550;40.588;49.684;2023-03-31T01:59:33;10.27;;;4.45;;
60370;SDS011;48550;40.588;49.684;2023-03-31T02:02:06;6.40;;;3.20;;
60370;SDS011;48550;40.588;49.684;2023-03-31T02:07:36;7.05;;;3.30;;
60370;SDS011;48550;40.588;49.684;2023-03-31T02:10:10;12.32;;;2.50;;
60370;SDS011;48550;40.588;49.684;2023-03-31T02:12:38;14.30;;;4.65;;
60370;SDS011;48550;40.588;49.684;2023-03-31T02:15:09;8.32;;;3.20;;
60370;SDS011;48550;40.588;49.684;2023-03-31T02:17:38;6.28;;;2.63;;
60370;SDS011;48550;40.588;49.684;2023-03-31T02:20:10;14.20;;;4.00;;
60370;SDS011;48550;40.588;49.684;2023-03-31T02:22:40;10.52;;;3.92;;
60370;SDS011;48550;40.588;49.684;2023-03-31T02:25:11;9.70;;;3.42;;
60370;SDS011;48550;40.588;49.684;2023-03-31T02:27:42;7.25;;;2.67;;
60370;SDS011;48550;40.588;49.684;2023-03-31T02:30:15;10.93;;;2.78;;
60370;SDS011;48550;40.588;49.684;2023-03-31T02:32:41;10.60;;;3.17;;
60370;SDS011;48550;40.588;49.684;2023-03-31T02:35:10;9.13;;;3.00;;
60370;SDS011;48550;40.588;49.684;2023-03-31T02:37:39;5.45;;;2.70;;
60370;SDS011;48550;40.588;49.684;2023-03-31T02:40:07;8.02;;;2.67;;
60370;SDS011;48550;40.588;49.684;2023-03-31T02:42:37;13.07;;;2.72;;
60370;SDS011;48550;40.588;49.684;2023-03-31T02:45:04;6.60;;;3.05;;
60370;SDS011;48550;40.588;49.684;2023-03-31T02:47:32;14.05;;;4.28;;
60370;SDS011;48550;40.588;49.684;2023-03-31T02:49:58;4.78;;;2.50;;
60370;SDS011;48550;40.588;49.684;2023-03-31T02:52:29;11.80;;;3.47;;
60370;SDS011;48550;40.588;49.684;2023-03-31T03:00:34;5.57;;;2.50;;
60370;SDS011;48550;40.588;49.684;2023-03-31T03:03:21;8.07;;;2.80;;
60370;SDS011;48550;40.588;49.684;2023-03-31T03:14:26;6.85;;;2.90;;
60370;SDS011;48550;40.588;49.684;2023-03-31T03:17:06;6.18;;;2.88;;
60370;SDS011;48550;40.588;49.684;2023-03-31T03:19:36;5.57;;;2.33;;
60370;SDS011;48550;40.588;49.684;2023-03-31T03:22:01;12.32;;;3.00;;
60370;SDS011;48550;40.588;49.684;2023-03-31T03:24:27;6.72;;;2.65;;
60370;SDS011;48550;40.588;49.684;2023-03-31T03:26:54;7.18;;;2.70;;
60370;SDS011;48550;40.588;49.684;2023-03-31T03:29:20;6.60;;;2.83;;
60370;SDS011;48550;40.588;49.684;2023-03-31T03:31:46;6.63;;;2.97;;
60370;SDS011;48550;40.588;49.684;2023-03-31T03:34:12;9.10;;;3.22;;
60370;SDS011;48550;40.588;49.684;2023-03-31T03:36:38;5.45;;;2.70;;
60370;SDS011;48550;40.588;49.684;2023-03-31T03:39:04;9.80;;;3.25;;
60370;SDS011;48550;40.588;49.684;2023-03-31T03:41:32;8.80;;;3.63;;
60370;SDS011;48550;40.588;49.684;2023-03-31T03:44:01;9.10;;;3.70;;
60370;SDS011;48550;40.588;49.684;2023-03-31T03:46:26;8.93;;;3.30;;
60370;SDS011;48550;40.588;49.684;2023-03-31T03:48:52;5.22;;;2.80;;
60370;SDS011;48550;40.588;49.684;2023-03-31T03:51:18;10.30;;;3.50;;
60370;SDS011;48550;40.588;49.684;2023-03-31T03:53:44;8.40;;;3.90;;
60370;SDS011;48550;40.588;49.684;2023-03-31T03:56:10;10.43;;;3.75;;
60370;SDS011;48550;40.588;49.684;2023-03-31T03:58:35;7.88;;;3.85;;
60370;SDS011;48550;40.588;49.684;2023-03-31T04:01:01;7.45;;;3.85;;
60370;SDS011;48550;40.588;49.684;2023-03-31T04:03:28;9.70;;;4.18;;
60370;SDS011;48550;40.588;49.684;2023-03-31T04:05:54;7.72;;;3.47;;
60370;SDS011;48550;40.588;49.684;2023-03-31T04:08:19;8.45;;;4.00;;
60370;SDS011;48550;40.588;49.684;2023-03-31T04:10:45;10.30;;;3.72;;
60370;SDS011;48550;40.588;49.684;2023-03-31T04:13:16;10.10;;;3.78;;
60370;SDS011;48550;40.588;49.684;2023-03-31T04:15:43;8.23;;;3.42;;
60370;SDS011;48550;40.588;49.684;2023-03-31T04:18:09;11.80;;;3.88;;
60370;SDS011;48550;40.588;49.684;2023-03-31T04:20:43;9.05;;;3.53;;
60370;SDS011;48550;40.588;49.684;2023-03-31T04:23:09;9.82;;;3.20;;
60370;SDS011;48550;40.588;49.684;2023-03-31T04:25:39;7.85;;;3.80;;
60370;SDS011;48550;40.588;49.684;2023-03-31T04:28:10;10.90;;;2.72;;
60370;SDS011;48550;40.588;49.684;2023-03-31T04:30:38;10.02;;;3.63;;
60370;SDS011;48550;40.588;49.684;2023-03-31T04:33:05;7.75;;;3.70;;
60370;SDS011;48550;40.588;49.684;2023-03-31T04:35:30;13.23;;;3.53;;
60370;SDS011;48550;40.588;49.684;2023-03-31T04:38:12;11.45;;;3.75;;
60370;SDS011;48550;40.588;49.684;2023-03-31T04:40:38;6.40;;;3.97;;
60370;SDS011;48550;40.588;49.684;2023-03-31T04:43:05;9.55;;;3.58;;
60370;SDS011;48550;40.588;49.684;2023-03-31T04:45:31;13.98;;;3.47;;
60370;SDS011;48550;40.588;49.684;2023-03-31T04:47:56;5.18;;;2.30;;
60370;SDS011;48550;40.588;49.684;2023-03-31T04:50:22;11.27;;;2.97;;
60370;SDS011;48550;40.588;49.684;2023-03-31T04:52:48;6.38;;;2.90;;
60370;SDS011;48550;40.588;49.684;2023-03-31T04:55:13;5.90;;;2.65;;
60370;SDS011;48550;40.588;49.684;2023-03-31T04:57:39;5.15;;;2.08;;
60370;SDS011;48550;40.588;49.684;2023-03-31T05:00:06;6.60;;;3.20;;
60370;SDS011;48550;40.588;49.684;2023-03-31T05:02:33;9.45;;;3.60;;
60370;SDS011;48550;40.588;49.684;2023-03-31T05:04:59;10.32;;;3.30;;
60370;SDS011;48550;40.588;49.684;2023-03-31T05:07:24;4.93;;;2.58;;
60370;SDS011;48550;40.588;49.684;2023-03-31T05:09:50;6.38;;;2.90;;
60370;SDS011;48550;40.588;49.684;2023-03-31T05:12:16;12.32;;;3.20;;
60370;SDS011;48550;40.588;49.684;2023-03-31T05:14:41;6.57;;;3.40;;
60370;SDS011;48550;40.588;49.684;2023-03-31T05:17:07;5.90;;;2.35;;
60370;SDS011;48550;40.588;49.684;2023-03-31T05:19:33;7.00;;;2.85;;
60370;SDS011;48550;40.588;49.684;2023-03-31T05:21:59;11.60;;;2.72;;
60370;SDS011;48550;40.588;49.684;2023-03-31T05:24:24;8.85;;;3.17;;
60370;SDS011;48550;40.588;49.684;2023-03-31T05:26:52;6.18;;;2.65;;
60370;SDS011;48550;40.588;49.684;2023-03-31T05:29:18;4.22;;;2.38;;
60370;SDS011;48550;40.588;49.684;2023-03-31T05:31:44;6.30;;;2.72;;
60370;SDS011;48550;40.588;49.684;2023-03-31T05:34:10;5.28;;;2.13;;
60370;SDS011;48550;40.588;49.684;2023-03-31T05:36:36;4.78;;;2.63;;
60370;SDS011;48550;40.588;49.684;2023-03-31T05:39:02;13.60;;;3.35;;
60370;SDS011;48550;40.588;49.684;2023-03-31T05:41:29;5.00;;;2.85;;
60370;SDS011;48550;40.588;49.684;2023-03-31T05:43:55;7.85;;;2.85;;
60370;SDS011;48550;40.588;49.684;2023-03-31T05:46:20;9.77;;;3.05;;
60370;SDS011;48550;40.588;49.684;2023-03-31T05:48:46;5.65;;;2.63;;
60370;SDS011;48550;40.588;49.684;2023-03-31T05:51:12;9.52;;;2.30;;
60370;SDS011;48550;40.588;49.684;2023-03-31T05:53:38;6.60;;;2.45;;
60370;SDS011;48550;40.588;49.684;2023-03-31T05:56:04;5.60;;;2.65;;
60370;SDS011;48550;40.588;49.684;2023-03-31T05:58:34;9.65;;;2.50;;
60370;SDS011;48550;40.588;49.684;2023-03-31T06:01:07;9.20;;;2.88;;
60370;SDS011;48550;40.588;49.684;2023-03-31T06:03:37;3.22;;;2.10;;
60370;SDS011;48550;40.588;49.684;2023-03-31T06:06:07;7.13;;;2.60;;
60370;SDS011;48550;40.588;49.684;2023-03-31T06:08:34;8.23;;;2.50;;
60370;SDS011;48550;40.588;49.684;2023-03-31T06:11:05;6.18;;;2.47;;
60370;SDS011;48550;40.588;49.684;2023-03-31T06:13:32;6.18;;;2.35;;
60370;SDS011;48550;40.588;49.684;2023-03-31T06:15:59;4.63;;;1.90;;
60370;SDS011;48550;40.588;49.684;2023-03-31T06:18:28;6.68;;;2.40;;
60370;SDS011;48550;40.588;49.684;2023-03-31T06:20:56;7.57;;;2.70;;
60370;SDS011;48550;40.588;49.684;2023-03-31T06:23:22;9.68;;;2.80;;
60370;SDS011;48550;40.588;49.684;2023-03-31T06:25:49;10.15;;;3.60;;
60370;SDS011;48550;40.588;49.684;2023-03-31T06:28:15;4.85;;;2.45;;
60370;SDS011;48550;40.588;49.684;2023-03-31T06:30:41;5.03;;;2.47;;
60370;SDS011;48550;40.588;49.684;2023-03-31T06:33:07;3.97;;;2.40;;
60370;SDS011;48550;40.588;49.684;2023-03-31T06:35:32;17.83;;;3.15;;
60370;SDS011;48550;40.588;49.684;2023-03-31T06:38:02;9.18;;;2.65;;
60370;SDS011;48550;40.588;49.684;2023-03-31T06:40:28;9.25;;;2.72;;
60370;SDS011;48550;40.588;49.684;2023-03-31T06:42:54;10.63;;;2.35;;
60370;SDS011;48550;40.588;49.684;2023-03-31T06:45:20;8.30;;;2.72;;
60370;SDS011;48550;40.588;49.684;2023-03-31T06:47:46;5.70;;;2.15;;
60370;SDS011;48550;40.588;49.684;2023-03-31T06:50:12;5.10;;;2.40;;
60370;SDS011;48550;40.588;49.684;2023-03-31T06:52:38;9.05;;;2.53;;
60370;SDS011;48550;40.588;49.684;2023-03-31T06:55:05;5.78;;;2.60;;
60370;SDS011;48550;40.588;49.684;2023-03-31T06:57:32;4.43;;;2.20;;
60370;SDS011;48550;40.588;49.684;2023-03-31T06:59:58;6.20;;;2.38;;
60370;SDS011;48550;40.588;49.684;2023-03-31T07:02:24;5.65;;;2.83;;
60370;SDS011;48550;40.588;49.684;2023-03-31T07:04:50;6.32;;;2.45;;
60370;SDS011;48550;40.588;49.684;2023-03-31T07:07:16;5.63;;;2.17;;
60370;SDS011;48550;40.588;49.684;2023-03-31T07:09:42;7.03;;;2.53;;
60370;SDS011;48550;40.588;49.684;2023-03-31T07:12:08;9.25;;;2.55;;
60370;SDS011;48550;40.588;49.684;2023-03-31T07:14:34;10.27;;;3.15;;
60370;SDS011;48550;40.588;49.684;2023-03-31T07:17:00;5.40;;;2.50;;
60370;SDS011;48550;40.588;49.684;2023-03-31T07:19:26;11.13;;;2.75;;
60370;SDS011;48550;40.588;49.684;2023-03-31T07:21:52;5.53;;;2.20;;
60370;SDS011;48550;40.588;49.684;2023-03-31T07:24:18;5.97;;;2.75;;
60370;SDS011;48550;40.588;49.684;2023-03-31T07:26:44;10.38;;;2.25;;
60370;SDS011;48550;40.588;49.684;2023-03-31T07:29:10;8.23;;;2.60;;
60370;SDS011;48550;40.588;49.684;2023-03-31T07:31:35;7.63;;;2.25;;
60370;SDS011;48550;40.588;49.684;2023-03-31T07:34:02;4.75;;;2.13;;
60370;SDS011;48550;40.588;49.684;2023-03-31T07:36:28;7.43;;;2.60;;
60370;SDS011;48550;40.588;49.684;2023-03-31T07:38:54;7.93;;;2.38;;
60370;SDS011;48550;40.588;49.684;2023-03-31T07:41:21;6.75;;;2.50;;
60370;SDS011;48550;40.588;49.684;2023-03-31T07:43:47;7.38;;;2.38;;
60370;SDS011;48550;40.588;49.684;2023-03-31T07:46:24;8.85;;;2.50;;
60370;SDS011;48550;40.588;49.684;2023-03-31T07:48:52;8.43;;;4.57;;
60370;SDS011;48550;40.588;49.684;2023-03-31T07:51:21;10.57;;;4.57;;
60370;SDS011;48550;40.588;49.684;2023-03-31T07:53:49;11.30;;;5.07;;
60370;SDS011;48550;40.588;49.684;2023-03-31T07:56:17;13.07;;;6.03;;
60370;SDS011;48550;40.588;49.684;2023-03-31T07:58:44;11.27;;;3.25;;
60370;SDS011;48550;40.588;49.684;2023-03-31T08:01:12;5.28;;;2.60;;
60370;SDS011;48550;40.588;49.684;2023-03-31T08:03:43;11.75;;;2.30;;
60370;SDS011;48550;40.588;49.684;2023-03-31T08:06:10;3.92;;;2.53;;
60370;SDS011;48550;40.588;49.684;2023-03-31T08:08:36;5.75;;;2.75;;
60370;SDS011;48550;40.588;49.684;2023-03-31T08:11:07;8.48;;;2.38;;
60370;SDS011;48550;40.588;49.684;2023-03-31T08:13:33;6.25;;;2.60;;
60370;SDS011;48550;40.588;49.684;2023-03-31T08:15:59;7.32;;;2.70;;
60370;SDS011;48550;40.588;49.684;2023-03-31T08:18:25;5.45;;;2.60;;
60370;SDS011;48550;40.588;49.684;2023-03-31T08:20:51;5.55;;;2.72;;
60370;SDS011;48550;40.588;49.684;2023-03-31T08:23:17;4.20;;;3.03;;
60370;SDS011;48550;40.588;49.684;2023-03-31T08:25:42;10.95;;;4.43;;
60370;SDS011;48550;40.588;49.684;2023-03-31T08:28:08;8.82;;;4.22;;
60370;SDS011;48550;40.588;49.684;2023-03-31T08:30:41;8.20;;;2.75;;
60370;SDS011;48550;40.588;49.684;2023-03-31T08:33:06;5.47;;;2.35;;
60370;SDS011;48550;40.588;49.684;2023-03-31T08:35:33;4.82;;;2.63;;
60370;SDS011;48550;40.588;49.684;2023-03-31T08:37:59;11.60;;;2.88;;
60370;SDS011;48550;40.588;49.684;2023-03-31T08:40:26;4.38;;;2.75;;
60370;SDS011;48550;40.588;49.684;2023-03-31T08:42:54;6.15;;;2.22;;
60370;SDS011;48550;40.588;49.684;2023-03-31T08:50:52;4.78;;;2.47;;
60370;SDS011;48550;40.588;49.684;2023-03-31T08:53:31;12.63;;;3.30;;
60370;SDS011;48550;40.588;49.684;2023-03-31T08:56:02;6.75;;;2.80;;
60370;SDS011;48550;40.588;49.684;2023-03-31T08:58:42;9.38;;;2.95;;
60370;SDS011;48550;40.588;49.684;2023-03-31T09:03:46;7.63;;;3.45;;
60370;SDS011;48550;40.588;49.684;2023-03-31T09:06:31;6.45;;;3.00;;
60370;SDS011;48550;40.588;49.684;2023-03-31T09:09:24;12.23;;;4.18;;
60370;SDS011;48550;40.588;49.684;2023-03-31T09:12:13;8.95;;;2.53;;
60370;SDS011;48550;40.588;49.684;2023-03-31T09:15:31;5.07;;;3.20;;
60370;SDS011;48550;40.588;49.684;2023-03-31T09:17:54;7.85;;;3.03;;
60370;SDS011;48550;40.588;49.684;2023-03-31T09:20:26;7.45;;;3.20;;
60370;SDS011;48550;40.588;49.684;2023-03-31T09:23:05;7.47;;;3.30;;
60370;SDS011;48550;40.588;49.684;2023-03-31T09:28:18;6.57;;;2.80;;
60370;SDS011;48550;40.588;49.684;2023-03-31T09:30:51;5.00;;;2.53;;
60370;SDS011;48550;40.588;49.684;2023-03-31T09:33:26;6.63;;;3.10;;
60370;SDS011;48550;40.588;49.684;2023-03-31T09:35:56;7.97;;;3.78;;
60370;SDS011;48550;40.588;49.684;2023-03-31T09:38:23;10.27;;;3.65;;
60370;SDS011;48550;40.588;49.684;2023-03-31T09:40:54;9.88;;;4.13;;
60370;SDS011;48550;40.588;49.684;2023-03-31T09:43:26;5.63;;;3.30;;
60370;SDS011;48550;40.588;49.684;2023-03-31T09:45:54;7.95;;;3.58;;
60370;SDS011;48550;40.588;49.684;2023-03-31T09:48:30;8.80;;;3.30;;
60370;SDS011;48550;40.588;49.684;2023-03-31T09:51:04;7.05;;;3.50;;
60370;SDS011;48550;40.588;49.684;2023-03-31T09:53:39;7.82;;;3.47;;
60370;SDS011;48550;40.588;49.684;2023-03-31T09:56:10;9.13;;;3.90;;
60370;SDS011;48550;40.588;49.684;2023-03-31T09:58:53;8.82;;;3.92;;
60370;SDS011;48550;40.588;49.684;2023-03-31T10:01:28;8.82;;;3.60;;
60370;SDS011;48550;40.588;49.684;2023-03-31T10:03:54;11.20;;;4.00;;
60370;SDS011;48550;40.588;49.684;2023-03-31T10:06:21;10.60;;;4.13;;
60370;SDS011;48550;40.588;49.684;2023-03-31T10:11:27;13.75;;;4.63;;
60370;SDS011;48550;40.588;49.684;2023-03-31T10:14:09;7.18;;;4.00;;
60370;SDS011;48550;40.588;49.684;2023-03-31T10:16:49;7.50;;;3.42;;
60370;SDS011;48550;40.588;49.684;2023-03-31T10:24:35;11.63;;;4.28;;
60370;SDS011;48550;40.588;49.684;2023-03-31T10:27:28;14.02;;;4.30;;
60370;SDS011;48550;40.588;49.684;2023-03-31T10:29:59;8.57;;;3.38;;
60370;SDS011;48550;40.588;49.684;2023-03-31T10:33:00;7.47;;;3.90;;
60370;SDS011;48550;40.588;49.684;2023-03-31T10:37:48;6.85;;;3.42;;
60370;SDS011;48550;40.588;49.684;2023-03-31T10:40:20;9.73;;;3.80;;
60370;SDS011;48550;40.588;49.684;2023-03-31T10:42:57;6.80;;;3.55;;
60370;SDS011;48550;40.588;49.684;2023-03-31T10:45:28;6.35;;;3.28;;
60370;SDS011;48550;40.588;49.684;2023-03-31T10:47:56;6.10;;;2.92;;
60370;SDS011;48550;40.588;49.684;2023-03-31T10:50:31;5.93;;;2.63;;
60370;SDS011;48550;40.588;49.684;2023-03-31T10:55:38;6.13;;;3.53;;
60370;SDS011;48550;40.588;49.684;2023-03-31T10:58:15;7.53;;;3.78;;
60370;SDS011;48550;40.588;49.684;2023-03-31T11:01:02;4.90;;;3.00;;
60370;SDS011;48550;40.588;49.684;2023-03-31T11:03:48;6.15;;;3.50;;
60370;SDS011;48550;40.588;49.684;2023-03-31T11:06:28;4.40;;;2.80;;
60370;SDS011;48550;40.588;49.684;2023-03-31T11:15:35;6.65;;;2.72;;
60370;SDS011;48550;40.588;49.684;2023-03-31T11:23:31;13.23;;;3.70;;
60370;SDS011;48550;40.588;49.684;2023-03-31T11:26:12;7.25;;;3.63;;
60370;SDS011;48550;40.588;49.684;2023-03-31T11:29:05;7.75;;;3.75;;
60370;SDS011;48550;40.588;49.684;2023-03-31T11:32:07;10.18;;;3.75;;
60370;SDS011;48550;40.588;49.684;2023-03-31T11:37:54;7.70;;;4.13;;
60370;SDS011;48550;40.588;49.684;2023-03-31T11:40:43;8.13;;;3.55;;
60370;SDS011;48550;40.588;49.684;2023-03-31T11:43:23;8.30;;;3.45;;
60370;SDS011;48550;40.588;49.684;2023-03-31T11:48:58;6.50;;;2.92;;
60370;SDS011;48550;40.588;49.684;2023-03-31T11:53:58;6.03;;;3.10;;
60370;SDS011;48550;40.588;49.684;2023-03-31T11:56:34;6.65;;;3.58;;
60370;SDS011;48550;40.588;49.684;2023-03-31T11:59:06;6.50;;;3.97;;
60370;SDS011;48550;40.588;49.684;2023-03-31T12:04:30;8.07;;;3.03;;
60370;SDS011;48550;40.588;49.684;2023-03-31T12:07:21;8.02;;;4.05;;
60370;SDS011;48550;40.588;49.684;2023-03-31T12:12:44;8.65;;;3.47;;
60370;SDS011;48550;40.588;49.684;2023-03-31T12:15:40;8.57;;;3.23;;
60370;SDS011;48550;40.588;49.684;2023-03-31T12:18:12;8.30;;;4.38;;
60370;SDS011;48550;40.588;49.684;2023-03-31T12:20:52;8.32;;;3.30;;
60370;SDS011;48550;40.588;49.684;2023-03-31T12:23:21;9.98;;;4.53;;
60370;SDS011;48550;40.588;49.684;2023-03-31T12:25:53;7.75;;;4.40;;
60370;SDS011;48550;40.588;49.684;2023-03-31T12:28:29;10.15;;;4.68;;
60370;SDS011;48550;40.588;49.684;2023-03-31T12:30:57;11.38;;;4.20;;
60370;SDS011;48550;40.588;49.684;2023-03-31T12:33:28;8.43;;;4.70;;
60370;SDS011;48550;40.588;49.684;2023-03-31T12:36:10;8.38;;;3.72;;
60370;SDS011;48550;40.588;49.684;2023-03-31T12:39:36;11.50;;;4.72;;
60370;SDS011;48550;40.588;49.684;2023-03-31T12:45:05;7.00;;;3.85;;
60370;SDS011;48550;40.588;49.684;2023-03-31T12:53:53;7.70;;;3.65;;
60370;SDS011;48550;40.588;49.684;2023-03-31T12:59:37;8.88;;;4.20;;
60370;SDS011;48550;40.588;49.684;2023-03-31T13:04:33;9.70;;;3.90;;
60370;SDS011;48550;40.588;49.684;2023-03-31T13:07:01;10.00;;;4.10;;
60370;SDS011;48550;40.588;49.684;2023-03-31T13:12:16;7.47;;;3.97;;
60370;SDS011;48550;40.588;49.684;2023-03-31T13:14:44;10.25;;;3.42;;
60370;SDS011;48550;40.588;49.684;2023-03-31T13:23:21;5.50;;;3.55;;
60370;SDS011;48550;40.588;49.684;2023-03-31T13:25:55;7.57;;;4.10;;
60370;SDS011;48550;40.588;49.684;2023-03-31T13:28:24;8.90;;;3.20;;
60370;SDS011;48550;40.588;49.684;2023-03-31T13:33:45;15.82;;;4.32;;
60370;SDS011;48550;40.588;49.684;2023-03-31T13:44:08;13.30;;;4.68;;
60370;SDS011;48550;40.588;49.684;2023-03-31T13:49:43;11.65;;;6.50;;
60370;SDS011;48550;40.588;49.684;2023-03-31T13:52:19;11.18;;;6.15;;
60370;SDS011;48550;40.588;49.684;2023-03-31T13:55:21;10.88;;;5.18;;
60370;SDS011;48550;40.588;49.684;2023-03-31T14:06:01;9.43;;;6.00;;
60370;SDS011;48550;40.588;49.684;2023-03-31T14:08:42;10.00;;;5.32;;
60370;SDS011;48550;40.588;49.684;2023-03-31T14:11:15;9.95;;;5.38;;
60370;SDS011;48550;40.588;49.684;2023-03-31T14:14:05;12.07;;;5.63;;
60370;SDS011;48550;40.588;49.684;2023-03-31T14:16:45;12.60;;;4.63;;
60370;SDS011;48550;40.588;49.684;2023-03-31T14:22:27;8.48;;;4.88;;
60370;SDS011;48550;40.588;49.684;2023-03-31T14:30:50;8.45;;;4.45;;
60370;SDS011;48550;40.588;49.684;2023-03-31T14:39:03;12.20;;;5.50;;
60370;SDS011;48550;40.588;49.684;2023-03-31T14:41:31;10.23;;;4.85;;
60370;SDS011;48550;40.588;49.684;2023-03-31T14:43:59;11.55;;;5.55;;
60370;SDS011;48550;40.588;49.684;2023-03-31T14:46:30;10.25;;;5.47;;
60370;SDS011;48550;40.588;49.684;2023-03-31T14:49:05;9.52;;;4.75;;
60370;SDS011;48550;40.588;49.684;2023-03-31T14:51:51;9.52;;;4.65;;
60370;SDS011;48550;40.588;49.684;2023-03-31T14:54:18;13.43;;;4.85;;
60370;SDS011;48550;40.588;49.684;2023-03-31T14:56:48;8.15;;;5.03;;
60370;SDS011;48550;40.588;49.684;2023-03-31T14:59:19;10.75;;;4.82;;
60370;SDS011;48550;40.588;49.684;2023-03-31T15:01:49;9.52;;;4.38;;
60370;SDS011;48550;40.588;49.684;2023-03-31T15:04:19;12.70;;;4.65;;
60370;SDS011;48550;40.588;49.684;2023-03-31T15:06:48;10.27;;;4.78;;
60370;SDS011;48550;40.588;49.684;2023-03-31T15:09:34;8.43;;;4.80;;
60370;SDS011;48550;40.588;49.684;2023-03-31T15:12:10;13.60;;;5.05;;
60370;SDS011;48550;40.588;49.684;2023-03-31T15:14:41;11.40;;;4.97;;
60370;SDS011;48550;40.588;49.684;2023-03-31T15:17:18;9.32;;;4.85;;
60370;SDS011;48550;40.588;49.684;2023-03-31T15:19:56;11.10;;;4.78;;
60370;SDS011;48550;40.588;49.684;2023-03-31T15:22:24;7.47;;;4.00;;
60370;SDS011;48550;40.588;49.684;2023-03-31T15:24:52;10.45;;;4.90;;
60370;SDS011;48550;40.588;49.684;2023-03-31T15:29:45;16.13;;;9.60;;
60370;SDS011;48550;40.588;49.684;2023-03-31T15:32:23;25.85;;;11.48;;
60370;SDS011;48550;40.588;49.684;2023-03-31T15:34:51;56.40;;;23.52;;
60370;SDS011;48550;40.588;49.684;2023-03-31T15:37:20;30.85;;;14.40;;
60370;SDS011;48550;40.588;49.684;2023-03-31T15:39:53;27.88;;;12.40;;
60370;SDS011;48550;40.588;49.684;2023-03-31T15:42:22;34.92;;;17.52;;
60370;SDS011;48550;40.588;49.684;2023-03-31T15:44:55;17.45;;;8.38;;
60370;SDS011;48550;40.588;49.684;2023-03-31T15:47:49;13.68;;;7.78;;
60370;SDS011;48550;40.588;49.684;2023-03-31T15:50:16;10.35;;;5.40;;
60370;SDS011;48550;40.588;49.684;2023-03-31T15:52:52;16.02;;;10.15;;
60370;SDS011;48550;40.588;49.684;2023-03-31T15:57:48;8.68;;;4.07;;
60370;SDS011;48550;40.588;49.684;2023-03-31T16:01:00;7.72;;;4.22;;
60370;SDS011;48550;40.588;49.684;2023-03-31T16:03:27;9.23;;;3.55;;
60370;SDS011;48550;40.588;49.684;2023-03-31T16:05:57;9.18;;;3.95;;
60370;SDS011;48550;40.588;49.684;2023-03-31T16:08:36;10.23;;;3.95;;
60370;SDS011;48550;40.588;49.684;2023-03-31T16:11:32;8.60;;;3.80;;
60370;SDS011;48550;40.588;49.684;2023-03-31T16:14:07;10.93;;;4.20;;
60370;SDS011;48550;40.588;49.684;2023-03-31T16:16:38;8.55;;;4.57;;
60370;SDS011;48550;40.588;49.684;2023-03-31T16:19:11;11.73;;;4.45;;
60370;SDS011;48550;40.588;49.684;2023-03-31T16:21:39;8.27;;;4.05;;
60370;SDS011;48550;40.588;49.684;2023-03-31T16:24:08;7.50;;;3.53;;
60370;SDS011;48550;40.588;49.684;2023-03-31T16:26:35;11.90;;;3.70;;
60370;SDS011;48550;40.588;49.684;2023-03-31T16:29:03;5.78;;;3.75;;
60370;SDS011;48550;40.588;49.684;2023-03-31T16:31:31;9.93;;;3.78;;
60370;SDS011;48550;40.588;49.684;2023-03-31T16:33:58;11.23;;;4.15;;
60370;SDS011;48550;40.588;49.684;2023-03-31T16:36:25;5.90;;;3.40;;
60370;SDS011;48550;40.588;49.684;2023-03-31T16:38:51;12.05;;;3.95;;
60370;SDS011;48550;40.588;49.684;2023-03-31T16:41:18;9.88;;;4.85;;
60370;SDS011;48550;40.588;49.684;2023-03-31T16:43:45;12.98;;;4.80;;
60370;SDS011;48550;40.588;49.684;2023-03-31T16:46:11;9.18;;;4.07;;
60370;SDS011;48550;40.588;49.684;2023-03-31T16:48:37;7.90;;;4.03;;
60370;SDS011;48550;40.588;49.684;2023-03-31T16:51:03;11.50;;;4.88;;
60370;SDS011;48550;40.588;49.684;2023-03-31T16:53:30;10.57;;;4.22;;
60370;SDS011;48550;40.588;49.684;2023-03-31T16:56:01;7.05;;;4.43;;
60370;SDS011;48550;40.588;49.684;2023-03-31T16:58:28;12.85;;;4.88;;
60370;SDS011;48550;40.588;49.684;2023-03-31T17:00:56;13.45;;;5.70;;
60370;SDS011;48550;40.588;49.684;2023-03-31T17:03:22;10.63;;;4.85;;
60370;SDS011;48550;40.588;49.684;2023-03-31T17:05:52;13.27;;;6.30;;
60370;SDS011;48550;40.588;49.684;2023-03-31T17:08:20;13.20;;;5.18;;
60370;SDS011;48550;40.588;49.684;2023-03-31T17:10:54;14.15;;;6.65;;
60370;SDS011;48550;40.588;49.684;2023-03-31T17:13:26;9.52;;;4.00;;
60370;SDS011;48550;40.588;49.684;2023-03-31T17:15:52;14.88;;;5.70;;
60370;SDS011;48550;40.588;49.684;2023-03-31T17:18:19;12.93;;;5.55;;
60370;SDS011;48550;40.588;49.684;2023-03-31T17:20:47;9.43;;;4.22;;
60370;SDS011;48550;40.588;49.684;2023-03-31T17:23:13;13.10;;;5.65;;
60370;SDS011;48550;40.588;49.684;2023-03-31T17:25:45;12.95;;;5.22;;
60370;SDS011;48550;40.588;49.684;2023-03-31T17:30:37;13.52;;;4.60;;
60370;SDS011;48550;40.588;49.684;2023-03-31T17:33:03;10.00;;;4.03;;
60370;SDS011;48550;40.588;49.684;2023-03-31T17:35:29;10.93;;;4.75;;
60370;SDS011;48550;40.588;49.684;2023-03-31T17:37:55;8.15;;;4.78;;